Time;durP1;ratioP1;P1;durP2;ratioP2;P2;SDS_P1;SDS_P2;PMS_P1;PMS_P2;Temp;Humidity;BMP_temperature;BMP_pressure;BME280_temperature;BME280_humidity;BME280_pressure;Samples;Min_cycle;Max_cycle;Signal;HPM_P1;HPM_P2
2021/12/16 00:01:45;;;;;;;12.57;1.45;;;;;;;19.89;46.62;102814.09;4178948;28;20181;-48
2021/12/16 00:02:10;;;;;;;7.50;1.48;;;;;;;19.85;46.38;102795.34;4171503;28;20143;-51
2021/12/16 00:09:06;;;;;;;7.35;1.30;;;;;;;19.86;46.08;102808.16;4165203;28;20075;-47
2021/12/16 00:29:58;;;;;;;9.95;1.20;;;;;;;19.87;45.70;102790.38;4182439;28;20094;-47
2021/12/16 00:32:17;;;;;;;5.72;1.38;;;;;;;19.85;45.40;102795.34;4181217;28;20029;-49
2021/12/16 00:34:21;;;;;;;7.10;1.70;;;;;;;19.87;45.52;102782.91;4180801;28;20049;-51
2021/12/16 00:36:23;;;;;;;4.15;1.45;;;;;;;19.82;45.35;102768.00;4174822;28;20042;-47
2021/12/16 00:38:24;;;;;;;6.75;1.55;;;;;;;19.87;45.62;102779.28;4179790;28;20075;-52
2021/12/16 00:40:26;;;;;;;5.28;1.40;;;;;;;19.87;45.21;102770.94;4180281;28;20106;-48
2021/12/16 00:45:33;;;;;;;6.75;1.70;;;;;;;19.88;45.23;102753.19;4146919;28;20455;-51
2021/12/16 00:47:49;;;;;;;9.20;1.38;;;;;;;19.87;45.14;102748.72;4165609;28;20485;-50
2021/12/16 00:49:53;;;;;;;7.40;1.33;;;;;;;19.89;44.88;102760.47;4165528;28;20464;-51
2021/12/16 00:54:16;;;;;;;5.13;1.30;;;;;;;19.88;44.74;102751.25;4164421;28;20436;-53
2021/12/16 00:56:18;;;;;;;8.23;1.50;;;;;;;19.89;44.89;102741.03;4164031;28;20554;-51
2021/12/16 00:58:25;;;;;;;10.80;1.70;;;;;;;19.85;44.79;102731.44;4164389;28;20033;-50
2021/12/16 01:00:30;;;;;;;9.45;1.98;;;;;;;19.89;45.06;102729.91;4165826;28;20066;-49
2021/12/16 01:02:58;;;;;;;5.80;1.50;;;;;;;19.87;44.55;102720.94;4180931;28;20554;-48
2021/12/16 01:05:30;;;;;;;6.03;1.60;;;;;;;19.86;45.02;102702.56;4179681;28;20033;-48
2021/12/16 01:42:39;;;;;;;4.97;1.50;;;;;;;19.85;44.63;102667.56;4167506;28;20056;-50
2021/12/16 01:51:57;;;;;;;4.43;1.35;;;;;;;19.84;44.80;102638.91;4183878;28;20035;-49
2021/12/16 01:58:35;;;;;;;5.10;1.50;;;;;;;19.86;44.92;102639.53;4168774;28;20026;-49
2021/12/16 02:01:31;;;;;;;4.32;1.60;;;;;;;19.82;44.65;102624.41;4173792;28;20033;-52
2021/12/16 02:03:10;;;;;;;4.25;1.70;;;;;;;19.86;44.77;102627.56;4167057;28;20040;-51
2021/12/16 02:09:46;;;;;;;7.05;1.85;;;;;;;19.84;44.59;102629.72;4181219;28;20036;-50
2021/12/16 02:12:03;;;;;;;5.32;1.80;;;;;;;19.84;45.08;102626.94;4169281;28;20483;-49
2021/12/16 02:28:26;;;;;;;8.63;1.77;;;;;;;19.82;45.02;102612.44;4166792;28;20136;-52
2021/12/16 02:35:10;;;;;;;9.40;1.92;;;;;;;19.73;44.71;102586.91;4180962;28;20043;-48
2021/12/16 02:37:17;;;;;;;9.35;1.95;;;;;;;19.80;44.92;102588.53;4166397;28;20029;-54
2021/12/16 02:39:33;;;;;;;6.20;1.88;;;;;;;19.77;44.91;102591.75;4169106;28;20100;-50
2021/12/16 02:41:38;;;;;;;8.65;2.08;;;;;;;19.80;44.63;102577.41;4166699;28;20096;-48
2021/12/16 02:48:30;;;;;;;8.73;2.30;;;;;;;19.79;44.98;102569.28;4181472;28;20090;-47
2021/12/16 02:50:32;;;;;;;12.70;2.30;;;;;;;19.82;44.60;102579.09;4182832;28;20032;-48
2021/12/16 02:52:33;;;;;;;18.10;3.00;;;;;;;19.81;44.67;102572.72;4173479;28;20049;-47
2021/12/16 02:54:35;;;;;;;14.85;3.22;;;;;;;19.79;44.67;102570.16;4183071;28;20076;-49
2021/12/16 02:56:37;;;;;;;13.55;2.40;;;;;;;19.82;44.58;102562.44;4182182;28;20037;-49
2021/12/16 02:58:43;;;;;;;10.98;2.55;;;;;;;19.80;44.94;102555.19;4182205;28;20041;-46
2021/12/16 03:00:54;;;;;;;14.15;2.97;;;;;;;19.80;44.71;102552.41;4182296;28;20118;-48
2021/12/16 03:02:55;;;;;;;13.45;2.97;;;;;;;19.82;44.70;102545.78;4181379;28;20123;-48
2021/12/16 03:04:57;;;;;;;14.23;2.72;;;;;;;19.80;44.48;102546.88;4183065;28;20522;-49
2021/12/16 03:07:00;;;;;;;15.48;2.85;;;;;;;19.79;44.96;102535.97;4182630;28;20412;-47
2021/12/16 03:09:06;;;;;;;22.42;3.03;;;;;;;19.82;44.70;102535.50;4182781;28;20113;-48
2021/12/16 03:13:36;;;;;;;21.67;3.40;;;;;;;19.75;44.69;102518.94;4182798;28;20115;-56
2021/12/16 03:18:19;;;;;;;20.60;3.75;;;;;;;19.83;44.68;102514.13;4166021;28;20406;-49
2021/12/16 03:20:42;;;;;;;15.10;3.97;;;;;;;19.85;44.51;102520.31;4179260;28;20098;-49
2021/12/16 03:36:14;;;;;;;17.48;3.63;;;;;;;19.81;44.63;102492.16;4182437;28;20869;-51
2021/12/16 03:38:15;;;;;;;22.25;3.47;;;;;;;19.78;44.47;102492.59;4171265;28;20045;-49
2021/12/16 03:40:18;;;;;;;21.52;3.30;;;;;;;19.81;44.46;102506.03;4164888;28;20037;-48
2021/12/16 03:42:34;;;;;;;18.55;4.28;;;;;;;19.79;44.30;102503.50;4164863;28;20398;-48
2021/12/16 03:44:53;;;;;;;12.10;3.63;;;;;;;19.82;44.71;102512.44;4164654;28;20428;-48
2021/12/16 03:46:55;;;;;;;22.85;3.42;;;;;;;19.79;44.46;102514.63;4172023;28;20090;-47
2021/12/16 03:49:17;;;;;;;21.92;3.38;;;;;;;19.76;44.75;102509.53;4166046;28;20091;-48
2021/12/16 03:51:24;;;;;;;16.05;3.63;;;;;;;19.78;44.79;102512.91;4170148;28;20432;-49
2021/12/16 03:53:26;;;;;;;18.30;3.88;;;;;;;19.72;44.57;102490.78;4177188;28;20106;-48
2021/12/16 03:55:28;;;;;;;15.80;2.97;;;;;;;19.74;44.78;102500.56;4174429;28;20041;-49
2021/12/16 03:57:31;;;;;;;17.92;4.00;;;;;;;19.79;44.72;102509.06;4166265;28;20037;-49
2021/12/16 03:59:33;;;;;;;16.20;3.40;;;;;;;19.79;44.86;102510.97;4166787;28;20064;-47
2021/12/16 04:01:36;;;;;;;14.10;4.03;;;;;;;19.78;44.68;102507.34;4171101;28;20045;-49
2021/12/16 04:03:38;;;;;;;16.67;3.45;;;;;;;19.79;44.84;102510.97;4173552;28;20447;-48
2021/12/16 04:05:41;;;;;;;15.77;4.32;;;;;;;19.77;44.95;102514.00;4166325;28;20071;-45
2021/12/16 04:07:44;;;;;;;26.73;4.97;;;;;;;19.76;44.54;102506.75;4168304;28;20041;-47
2021/12/16 04:09:47;;;;;;;15.63;4.20;;;;;;;19.70;44.65;102502.13;4177498;28;20155;-49
2021/12/16 04:12:07;;;;;;;18.50;4.25;;;;;;;19.75;44.53;102507.84;4177313;28;20449;-50
2021/12/16 04:14:12;;;;;;;18.05;3.53;;;;;;;19.79;44.80;102497.06;4181234;28;20434;-48
2021/12/16 04:16:13;;;;;;;15.82;3.35;;;;;;;19.77;44.75;102489.00;4165996;28;20146;-50
2021/12/16 04:18:15;;;;;;;12.15;3.70;;;;;;;19.78;44.68;102485.13;4164770;28;20186;-50
2021/12/16 04:20:17;;;;;;;15.32;3.92;;;;;;;19.80;44.63;102493.25;4165729;28;20088;-47
2021/12/16 04:22:30;;;;;;;17.83;3.35;;;;;;;19.75;44.58;102477.28;4166010;28;20034;-46
2021/12/16 04:24:32;;;;;;;14.95;4.07;;;;;;;19.78;44.74;102479.56;4171430;28;20053;-50
2021/12/16 04:26:36;;;;;;;17.00;3.40;;;;;;;19.78;44.47;102474.00;4176780;28;20032;-47
2021/12/16 04:28:38;;;;;;;14.50;3.38;;;;;;;19.78;44.80;102468.44;4180304;28;20107;-48
2021/12/16 04:30:39;;;;;;;14.27;3.80;;;;;;;19.71;44.71;102442.72;4168439;28;20045;-50
2021/12/16 04:32:41;;;;;;;16.35;3.20;;;;;;;19.72;44.71;102438.00;4164537;28;20103;-47
2021/12/16 04:34:43;;;;;;;18.77;4.28;;;;;;;19.74;44.89;102447.78;4164399;28;20431;-47
2021/12/16 04:36:45;;;;;;;15.32;4.20;;;;;;;19.74;44.87;102439.44;4164488;28;20041;-46
2021/12/16 04:38:47;;;;;;;13.50;3.58;;;;;;;19.75;45.00;102441.16;4164100;28;20033;-46
2021/12/16 04:40:49;;;;;;;17.10;4.40;;;;;;;19.72;45.01;102435.22;4163826;28;20029;-48
2021/12/16 04:42:53;;;;;;;10.57;3.47;;;;;;;19.72;44.89;102429.69;4175866;28;20098;-48
2021/12/16 04:44:54;;;;;;;8.68;3.38;;;;;;;19.73;44.99;102421.09;4179274;28;20176;-49
2021/12/16 04:46:58;;;;;;;17.48;3.95;;;;;;;19.71;44.81;102423.28;4180278;28;20374;-48
2021/12/16 04:49:01;;;;;;;12.27;3.30;;;;;;;19.64;45.10;102411.41;4180790;28;20040;-49
2021/12/16 04:51:05;;;;;;;20.60;3.63;;;;;;;19.70;45.13;102413.25;4180442;28;20353;-46
2021/12/16 04:53:06;;;;;;;13.15;3.65;;;;;;;19.68;45.29;102401.53;4180404;28;20037;-46
2021/12/16 04:55:10;;;;;;;14.30;3.95;;;;;;;19.69;44.82;102408.78;4180535;28;20048;-47
2021/12/16 04:57:12;;;;;;;16.10;3.35;;;;;;;19.68;45.24;102398.75;4180006;28;20109;-48
2021/12/16 04:59:17;;;;;;;15.07;4.03;;;;;;;19.68;45.11;102387.66;4180648;28;20083;-51
2021/12/16 05:01:19;;;;;;;20.92;4.15;;;;;;;19.68;45.07;102389.56;4180251;28;20037;-49
2021/12/16 05:03:22;;;;;;;14.18;3.20;;;;;;;19.68;45.22;102390.41;4180645;28;20095;-52
2021/12/16 05:05:24;;;;;;;11.20;3.30;;;;;;;19.68;44.97;102384.88;4180092;28;20086;-53
2021/12/16 05:07:26;;;;;;;11.85;3.85;;;;;;;19.68;45.34;102386.81;4179736;28;20057;-47
2021/12/16 05:10:17;;;;;;;18.55;3.85;;;;;;;19.67;45.05;102376.78;4180547;28;20468;-49
2021/12/16 05:11:52;;;;;;;15.93;4.00;;;;;;;19.66;45.00;102364.00;4176748;28;20100;-47
2021/12/16 05:13:54;;;;;;;15.55;4.00;;;;;;;19.70;45.17;102366.06;4179335;28;20219;-47
2021/12/16 05:16:01;;;;;;;16.50;3.88;;;;;;;19.70;44.95;102360.50;4181044;28;20025;-53
2021/12/16 05:18:06;;;;;;;15.60;3.42;;;;;;;19.68;44.87;102359.88;4177341;28;20080;-49
2021/12/16 05:20:12;;;;;;;;;;;;;;;19.66;45.31;102356.50;4164711;28;20376;-49
2021/12/16 05:24:34;;;;;;;12.32;3.90;;;;;;;19.75;44.88;102346.75;4164640;28;20087;-47
2021/12/16 05:26:35;;;;;;;12.13;3.25;;;;;;;19.75;45.14;102352.28;4164664;28;20595;-49
2021/12/16 05:28:38;;;;;;;8.82;3.35;;;;;;;19.72;44.99;102338.03;4163916;28;20041;-50
2021/12/16 05:30:42;;;;;;;15.10;4.10;;;;;;;19.70;44.83;102338.28;4163474;28;20041;-47
2021/12/16 05:32:46;;;;;;;13.45;3.15;;;;;;;19.70;44.89;102337.41;4163677;28;20041;-48
2021/12/16 05:34:47;;;;;;;9.70;3.23;;;;;;;19.68;45.21;102340.44;4164305;28;20103;-47
2021/12/16 05:36:49;;;;;;;10.65;3.30;;;;;;;19.70;45.15;102343.84;4165262;28;20083;-47
2021/12/16 05:38:51;;;;;;;9.85;2.85;;;;;;;19.70;44.86;102338.28;4164193;28;20091;-48
2021/12/16 05:40:54;;;;;;;9.95;2.97;;;;;;;19.66;45.21;102320.41;4165188;28;20079;-46
2021/12/16 05:42:59;;;;;;;14.57;3.60;;;;;;;19.69;45.29;102330.16;4177213;28;20044;-48
2021/12/16 05:45:01;;;;;;;15.80;3.35;;;;;;;19.70;45.25;102329.94;4180550;28;20040;-49
2021/12/16 05:47:02;;;;;;;13.25;3.65;;;;;;;19.63;44.88;102315.31;4171944;28;20091;-46
2021/12/16 05:49:09;;;;;;;11.18;3.33;;;;;;;19.68;44.86;102318.22;4164767;28;20092;-48
2021/12/16 05:51:33;;;;;;;15.63;3.78;;;;;;;19.69;44.83;102316.28;4164837;28;20099;-48
2021/12/16 05:53:36;;;;;;;11.25;3.47;;;;;;;19.70;44.97;102310.50;4171030;28;20041;-47
2021/12/16 05:55:38;;;;;;;12.55;3.50;;;;;;;19.70;44.90;102306.84;4179944;28;20041;-46
2021/12/16 05:57:41;;;;;;;9.77;3.50;;;;;;;19.70;44.85;102307.72;4178353;28;20091;-47
2021/12/16 05:59:42;;;;;;;10.57;3.60;;;;;;;19.70;44.89;102302.19;4178713;28;20518;-50
2021/12/16 06:01:46;;;;;;;11.30;3.47;;;;;;;19.71;44.85;102309.41;4164229;28;20110;-48
2021/12/16 06:03:48;;;;;;;9.25;3.33;;;;;;;19.71;45.19;102305.78;4165038;28;20026;-47
2021/12/16 06:05:51;;;;;;;13.20;3.25;;;;;;;19.70;45.15;102304.94;4180017;28;20095;-46
2021/12/16 06:07:53;;;;;;;9.27;3.63;;;;;;;19.71;45.23;102303.00;4175361;28;20053;-49
2021/12/16 06:09:55;;;;;;;13.75;3.75;;;;;;;19.65;44.89;102302.03;4170247;28;20038;-48
2021/12/16 06:11:56;;;;;;;9.65;3.65;;;;;;;19.71;45.24;102312.19;4163671;28;20103;-47
2021/12/16 06:14:11;;;;;;;10.77;3.58;;;;;;;19.70;44.96;102310.50;4172268;28;20177;-47
2021/12/16 06:28:06;;;;;;;8.60;2.78;;;;;;;19.70;45.17;102310.50;4183152;28;20537;-52
2021/12/16 06:30:10;;;;;;;10.43;3.22;;;;;;;19.69;45.29;102308.78;4181946;28;20037;-49
2021/12/16 06:32:13;;;;;;;10.90;2.58;;;;;;;19.66;45.03;102306.50;4182502;28;20182;-46
2021/12/16 06:34:17;;;;;;;8.95;2.88;;;;;;;19.66;45.11;102303.75;4182989;28;20036;-48
2021/12/16 06:36:19;;;;;;;16.00;3.85;;;;;;;19.65;44.92;102310.34;4182771;28;20041;-49
2021/12/16 06:38:22;;;;;;;9.93;3.20;;;;;;;19.66;45.22;102312.06;4182550;28;20431;-47
2021/12/16 06:40:23;;;;;;;11.77;3.00;;;;;;;19.64;45.24;102305.88;4182854;28;20044;-47
2021/12/16 06:42:26;;;;;;;12.65;3.35;;;;;;;19.65;45.40;102307.56;4182429;28;20476;-46
2021/12/16 06:44:33;;;;;;;13.15;3.45;;;;;;;19.65;45.44;102306.72;4182198;28;20095;-47
2021/12/16 06:46:38;;;;;;;12.05;3.75;;;;;;;19.62;45.21;102299.75;4182278;28;20037;-49
2021/12/16 06:48:42;;;;;;;9.23;3.17;;;;;;;19.65;45.16;102307.56;4182561;28;20095;-51
2021/12/16 06:50:50;;;;;;;10.43;3.00;;;;;;;19.66;45.05;102305.66;4182257;28;20529;-50
2021/12/16 06:52:56;;;;;;;12.48;3.30;;;;;;;19.66;45.24;102300.97;4183114;28;20025;-52
2021/12/16 06:55:18;;;;;;;13.07;3.13;;;;;;;19.67;45.51;102304.56;4182487;28;20442;-48
2021/12/16 06:57:25;;;;;;;9.90;2.92;;;;;;;19.67;45.25;102305.41;4181885;28;20091;-46
2021/12/16 06:59:31;;;;;;;8.48;2.70;;;;;;;19.67;45.02;102305.41;4182437;28;20036;-46
2021/12/16 07:01:41;;;;;;;14.18;2.45;;;;;;;19.65;45.16;102290.06;4182204;28;20049;-48
2021/12/16 07:03:47;;;;;;;14.63;4.20;;;;;;;19.66;44.96;102295.41;4182751;28;20083;-50
2021/12/16 07:05:56;;;;;;;9.52;2.72;;;;;;;19.67;45.12;102294.31;4182409;28;20469;-47
2021/12/16 07:07:58;;;;;;;7.75;3.03;;;;;;;19.69;44.96;102299.63;4165850;28;20033;-48
2021/12/16 07:10:00;;;;;;;13.13;3.13;;;;;;;19.69;45.14;102307.94;4181033;28;20086;-46
2021/12/16 07:12:02;;;;;;;8.05;3.10;;;;;;;19.68;44.87;102307.09;4166431;28;20029;-47
2021/12/16 07:14:05;;;;;;;7.53;2.53;;;;;;;19.66;44.95;102300.97;4166554;28;20469;-49
2021/12/16 07:16:07;;;;;;;11.13;2.88;;;;;;;19.68;45.37;102309.03;4166205;28;20033;-48
2021/12/16 07:18:08;;;;;;;10.02;3.25;;;;;;;19.68;45.26;102307.09;4169433;28;20550;-51
2021/12/16 07:20:14;;;;;;;7.28;2.65;;;;;;;19.67;45.19;102305.41;4182341;28;20045;-49
2021/12/16 07:22:15;;;;;;;10.45;3.28;;;;;;;19.66;45.35;102309.28;4182148;28;20037;-49
2021/12/16 07:24:19;;;;;;;8.93;2.97;;;;;;;19.64;45.08;102300.34;4182318;28;20075;-46
2021/12/16 07:26:21;;;;;;;9.35;2.65;;;;;;;19.64;45.38;102291.16;4181689;28;20053;-47
2021/12/16 07:28:22;;;;;;;9.82;3.00;;;;;;;19.66;45.08;102291.78;4177241;28;20037;-46
2021/12/16 07:30:24;;;;;;;8.80;2.45;;;;;;;19.66;45.17;102289.00;4182091;28;20098;-47
2021/12/16 07:32:28;;;;;;;8.43;3.15;;;;;;;19.61;45.06;102273.06;4169444;28;20045;-46
2021/12/16 07:34:30;;;;;;;8.50;2.53;;;;;;;19.65;45.07;102282.56;4181870;28;20094;-46
2021/12/16 07:36:34;;;;;;;7.32;2.38;;;;;;;19.63;45.41;102272.81;4165668;28;20045;-47
2021/12/16 07:38:37;;;;;;;10.32;3.45;;;;;;;19.65;45.09;102279.81;4165066;28;20037;-45
2021/12/16 07:40:40;;;;;;;7.57;3.47;;;;;;;19.62;45.54;102280.31;4169272;28;20091;-47
2021/12/16 07:42:48;;;;;;;8.15;2.70;;;;;;;19.64;45.24;102283.66;4173592;28;20053;-47
2021/12/16 07:44:50;;;;;;;9.82;2.83;;;;;;;19.64;45.15;102278.13;4165250;28;20045;-47
2021/12/16 07:46:58;;;;;;;6.55;2.53;;;;;;;19.60;45.43;102276.03;4174557;28;20435;-46
2021/12/16 07:48:59;;;;;;;11.63;3.20;;;;;;;19.62;45.10;102280.31;4182104;28;20094;-47
2021/12/16 07:51:05;;;;;;;10.15;2.60;;;;;;;19.62;45.19;102280.31;4182047;28;20150;-45
2021/12/16 07:53:09;;;;;;;10.88;2.83;;;;;;;19.59;45.09;102264.06;4181168;28;20098;-49
2021/12/16 07:55:12;;;;;;;9.82;2.90;;;;;;;19.54;45.32;102252.84;4181698;28;20492;-47
2021/12/16 07:57:14;;;;;;;8.18;2.55;;;;;;;19.62;45.46;102269.19;4180749;28;20063;-46
2021/12/16 07:59:15;;;;;;;9.73;2.70;;;;;;;19.62;45.07;102263.66;4170289;28;20538;-48
2021/12/16 08:01:17;;;;;;;6.30;2.50;;;;;;;19.63;45.16;102258.94;4165661;28;20101;-49
2021/12/16 08:03:19;;;;;;;9.02;2.97;;;;;;;19.61;45.25;102256.41;4165124;28;20111;-47
2021/12/16 08:05:24;;;;;;;7.18;2.53;;;;;;;19.60;45.42;102249.13;4165124;28;20388;-51
2021/12/16 08:07:26;;;;;;;10.38;2.95;;;;;;;19.58;45.32;102242.97;4165177;28;20102;-50
2021/12/16 08:09:27;;;;;;;7.90;2.70;;;;;;;19.58;45.11;102240.19;4164926;28;20049;-47
2021/12/16 08:11:31;;;;;;;7.68;2.50;;;;;;;19.61;45.46;102236.97;4165358;28;20084;-51
2021/12/16 08:13:33;;;;;;;9.43;3.28;;;;;;;19.62;45.19;102230.31;4165062;28;20049;-49
2021/12/16 08:15:37;;;;;;;6.30;2.22;;;;;;;19.62;45.10;102230.31;4165127;28;20108;-46
2021/12/16 08:17:38;;;;;;;9.70;2.63;;;;;;;19.63;45.15;102234.78;4164915;28;20364;-49
2021/12/16 08:19:41;;;;;;;6.53;2.55;;;;;;;19.61;45.32;102228.63;4164946;28;20440;-48
2021/12/16 08:21:43;;;;;;;7.30;2.95;;;;;;;19.60;45.38;102229.69;4164746;28;20103;-49
2021/12/16 08:23:47;;;;;;;8.20;2.55;;;;;;;19.61;45.25;102227.75;4164996;28;20041;-48
2021/12/16 08:25:51;;;;;;;7.10;2.30;;;;;;;19.60;45.49;102221.38;4164346;28;20480;-49
2021/12/16 08:27:53;;;;;;;6.82;2.47;;;;;;;19.59;45.36;102219.66;4164283;28;20038;-49
2021/12/16 08:29:57;;;;;;;7.90;3.00;;;;;;;19.60;45.36;102224.16;4165002;28;20473;-48
2021/12/16 08:31:59;;;;;;;10.55;2.40;;;;;;;19.59;45.24;102230.75;4164622;28;20045;-48
2021/12/16 08:34:01;;;;;;;6.18;2.38;;;;;;;19.59;45.17;102222.44;4164654;28;20103;-45
2021/12/16 08:36:04;;;;;;;6.35;3.05;;;;;;;19.60;45.44;102221.38;4176695;28;20041;-47
2021/12/16 08:38:06;;;;;;;6.63;2.40;;;;;;;19.57;45.73;102210.72;4180240;28;20041;-46
2021/12/16 08:40:13;;;;;;;8.18;2.20;;;;;;;19.60;45.31;102215.81;4180379;28;20041;-47
2021/12/16 08:42:15;;;;;;;8.55;2.47;;;;;;;19.61;45.17;102216.66;4177261;28;20057;-50
2021/12/16 08:44:17;;;;;;;4.15;2.00;;;;;;;19.60;45.49;102204.72;4175595;28;20123;-48
2021/12/16 08:46:21;;;;;;;7.72;2.33;;;;;;;19.58;45.60;102206.88;4164968;28;20091;-50
2021/12/16 08:48:23;;;;;;;7.25;2.45;;;;;;;19.58;45.40;102197.69;4177015;28;20067;-50
2021/12/16 08:50:29;;;;;;;7.53;2.80;;;;;;;19.61;45.41;102200.00;4177650;28;20055;-46
2021/12/16 08:52:30;;;;;;;5.43;2.40;;;;;;;19.61;45.41;102200.00;4164415;28;20095;-47
2021/12/16 08:54:33;;;;;;;6.93;2.55;;;;;;;19.61;45.41;102205.56;4164353;28;20107;-50
2021/12/16 08:56:35;;;;;;;9.65;2.60;;;;;;;19.54;45.53;102194.53;4174485;28;20554;-47
2021/12/16 08:58:40;;;;;;;5.43;2.50;;;;;;;19.60;45.11;102203.84;4174865;28;20099;-48
2021/12/16 09:00:50;;;;;;;5.97;2.17;;;;;;;19.58;45.44;102200.47;4174083;28;20045;-47
2021/12/16 09:02:52;;;;;;;8.23;2.33;;;;;;;19.58;45.26;102190.19;4176420;28;20038;-47
2021/12/16 09:04:53;;;;;;;8.07;2.85;;;;;;;19.58;45.19;102187.44;4172942;28;20048;-47
2021/12/16 09:06:59;;;;;;;6.70;2.30;;;;;;;19.58;45.27;102181.88;4180998;28;20025;-51
2021/12/16 09:09:03;;;;;;;4.55;2.35;;;;;;;19.57;45.47;102182.97;4171189;28;20045;-47
2021/12/16 09:11:09;;;;;;;6.88;2.30;;;;;;;19.55;45.46;102179.56;4164373;28;20092;-47
2021/12/16 09:13:16;;;;;;;6.68;2.63;;;;;;;19.55;45.42;102185.13;4164038;28;20045;-47
2021/12/16 09:15:21;;;;;;;8.50;3.00;;;;;;;19.55;45.18;102179.56;4164269;28;20440;-46
2021/12/16 09:17:22;;;;;;;6.65;2.47;;;;;;;19.55;45.58;102163.75;4164233;28;20029;-48
2021/12/16 09:19:24;;;;;;;5.25;1.98;;;;;;;19.58;45.60;102159.66;4163985;28;20107;-50
2021/12/16 09:21:30;;;;;;;5.82;2.55;;;;;;;19.55;45.49;102158.19;4175482;28;20029;-50
2021/12/16 09:23:33;;;;;;;7.75;2.60;;;;;;;19.55;45.24;102151.81;4180665;28;20033;-47
2021/12/16 09:25:35;;;;;;;4.60;2.13;;;;;;;19.58;45.25;102150.50;4180768;28;20025;-47
2021/12/16 09:27:37;;;;;;;7.63;2.42;;;;;;;19.59;45.45;102143.84;4180046;28;20542;-51
2021/12/16 09:29:39;;;;;;;7.78;2.30;;;;;;;19.59;45.25;102143.84;4180105;28;20387;-47
2021/12/16 09:31:41;;;;;;;7.13;2.67;;;;;;;19.58;45.32;102142.16;4180127;28;20044;-50
2021/12/16 09:33:50;;;;;;;8.35;2.40;;;;;;;19.56;45.53;102131.28;4180283;28;20044;-50
2021/12/16 09:35:55;;;;;;;7.57;2.25;;;;;;;19.53;45.69;102120.69;4180838;28;20181;-49
2021/12/16 09:37:58;;;;;;;7.72;2.40;;;;;;;19.55;45.38;102126.81;4180405;28;20067;-48
2021/12/16 09:40:01;;;;;;;5.38;2.35;;;;;;;19.54;45.29;102122.34;4180670;28;20025;-50
2021/12/16 09:42:05;;;;;;;6.18;2.22;;;;;;;19.55;45.53;102124.03;4180598;28;20529;-47
2021/12/16 09:44:08;;;;;;;4.55;2.03;;;;;;;19.54;45.74;102114.88;4180448;28;20094;-48
2021/12/16 09:46:14;;;;;;;8.43;3.00;;;;;;;19.54;45.57;102116.81;4180239;28;20095;-47
2021/12/16 09:48:16;;;;;;;7.47;1.98;;;;;;;19.54;45.28;102116.81;4179587;28;20041;-50
2021/12/16 09:50:26;;;;;;;8.57;2.67;;;;;;;19.53;45.59;102115.13;4179827;28;20472;-47
2021/12/16 09:52:30;;;;;;;6.57;2.10;;;;;;;19.51;45.32;102112.56;4180414;28;20033;-46
2021/12/16 09:54:35;;;;;;;4.93;2.55;;;;;;;19.53;45.33;102112.34;4183911;28;20025;-46
2021/12/16 09:56:39;;;;;;;5.00;1.98;;;;;;;19.54;45.46;102111.25;4183570;28;20472;-49
2021/12/16 09:58:43;;;;;;;6.75;1.88;;;;;;;19.55;45.28;102113.78;4166523;28;20534;-46
2021/12/16 10:00:44;;;;;;;5.25;2.25;;;;;;;19.55;45.36;102118.50;4166906;28;20045;-48
2021/12/16 10:02:46;;;;;;;5.38;1.90;;;;;;;19.54;45.56;102116.81;4165468;28;20330;-47
2021/12/16 10:04:48;;;;;;;4.13;2.22;;;;;;;19.55;45.61;102112.94;4177811;28;20075;-45
2021/12/16 10:06:56;;;;;;;6.63;2.70;;;;;;;19.53;45.40;102104.84;4170673;28;20099;-51
2021/12/16 10:09:04;;;;;;;7.80;1.95;;;;;;;19.54;45.52;102111.25;4167697;28;20436;-46
2021/12/16 10:11:06;;;;;;;6.30;1.95;;;;;;;19.52;45.29;102097.63;4172343;28;20660;-46
2021/12/16 10:13:07;;;;;;;6.82;2.00;;;;;;;19.51;45.69;102112.56;4172601;28;20037;-47
2021/12/16 10:17:42;;;;;;;7.20;2.15;;;;;;;19.50;45.56;102104.50;4180028;28;20434;-54
2021/12/16 10:19:44;;;;;;;5.25;2.42;;;;;;;19.49;45.23;102117.53;4183456;28;20094;-46
2021/12/16 10:21:49;;;;;;;4.80;2.00;;;;;;;19.51;45.45;102118.13;4183611;28;20028;-49
2021/12/16 10:23:54;;;;;;;5.20;2.03;;;;;;;19.50;45.63;102115.59;4183623;28;20090;-48
2021/12/16 10:26:00;;;;;;;4.22;2.03;;;;;;;19.52;45.45;102124.56;4183486;28;20407;-48
2021/12/16 10:28:16;;;;;;;3.90;1.92;;;;;;;19.50;45.26;102121.16;4182171;28;20036;-49
2021/12/16 10:30:20;;;;;;;5.95;2.10;;;;;;;19.50;45.65;102126.72;4166796;28;20099;-49
2021/12/16 10:32:39;;;;;;;7.55;2.25;;;;;;;19.47;45.19;102136.38;4171665;28;20029;-46
2021/12/16 10:34:55;;;;;;;5.70;1.88;;;;;;;19.50;45.64;102137.81;4182863;28;20098;-45
2021/12/16 10:36:59;;;;;;;4.97;2.10;;;;;;;19.50;45.44;102137.81;4178597;28;20430;-46
2021/12/16 10:39:08;;;;;;;5.35;2.20;;;;;;;19.49;45.38;102136.97;4172845;28;20095;-46
2021/12/16 10:41:13;;;;;;;4.10;2.25;;;;;;;19.49;45.76;102125.03;4166489;28;20096;-50
2021/12/16 10:43:32;;;;;;;;;;;;;;;19.47;45.58;102132.72;4178454;28;20557;-47
2021/12/16 10:45:41;;;;;;;4.45;1.92;;;;;;;19.52;45.31;102128.16;4182511;28;19939;-49
2021/12/16 10:48:10;;;;;;;4.47;2.13;;;;;;;19.50;45.62;102143.38;4169005;28;20046;-49
2021/12/16 10:50:14;;;;;;;5.45;1.88;;;;;;;19.52;45.31;102152.31;4166549;28;20056;-47
2021/12/16 10:52:22;;;;;;;3.83;1.85;;;;;;;19.49;45.31;102150.84;4166527;28;20087;-49
2021/12/16 10:54:34;;;;;;;3.90;1.90;;;;;;;19.49;45.75;102155.56;4169549;28;20059;-50
2021/12/16 10:56:43;;;;;;;4.72;1.92;;;;;;;19.48;45.58;102159.44;4182532;28;20114;-47
2021/12/16 10:58:50;;;;;;;4.57;2.05;;;;;;;19.47;45.43;102160.50;4182525;28;20483;-51
2021/12/16 11:00:52;;;;;;;4.82;1.95;;;;;;;19.47;45.77;102160.50;4182321;28;20098;-52
2021/12/16 11:02:53;;;;;;;5.15;2.20;;;;;;;19.45;45.71;102157.97;4180532;28;20045;-47
2021/12/16 11:05:19;;;;;;;6.18;2.10;;;;;;;19.43;45.52;102164.88;4169482;28;20542;-50
2021/12/16 11:07:28;;;;;;;;;;;;;;;19.43;45.83;102162.09;4157029;28;20038;-47
2021/12/16 11:09:50;;;;;;;2.83;1.73;;;;;;;19.47;45.46;102154.94;4172257;28;19970;-49
2021/12/16 11:12:07;;;;;;;5.72;1.88;;;;;;;19.48;45.63;102156.66;4175638;28;20415;-47
2021/12/16 11:14:09;;;;;;;4.20;2.38;;;;;;;19.49;45.41;102147.22;4176624;28;20041;-46
2021/12/16 11:16:10;;;;;;;5.47;1.92;;;;;;;19.47;45.43;102138.28;4167717;28;20091;-49
2021/12/16 11:18:16;;;;;;;5.72;1.83;;;;;;;19.47;45.53;102143.84;4174402;28;20057;-47
2021/12/16 11:20:23;;;;;;;5.07;1.60;;;;;;;19.45;45.51;102127.44;4166698;28;20037;-48
2021/12/16 11:22:31;;;;;;;3.65;1.90;;;;;;;19.46;45.75;102128.28;4174992;28;20045;-46
2021/12/16 11:24:38;;;;;;;5.85;2.10;;;;;;;19.44;45.75;102136.00;4169610;28;20025;-48
2021/12/16 11:26:43;;;;;;;8.25;2.15;;;;;;;19.44;45.80;102141.56;4172821;28;20131;-47
2021/12/16 11:28:47;;;;;;;4.65;1.85;;;;;;;19.41;45.46;102137.31;4176872;28;20377;-47
2021/12/16 11:30:48;;;;;;;4.25;1.88;;;;;;;19.46;45.65;102139.38;4165988;28;20554;-47
2021/12/16 11:32:52;;;;;;;3.83;2.05;;;;;;;19.46;45.48;102125.50;4178069;28;20091;-51
2021/12/16 11:34:53;;;;;;;3.85;1.90;;;;;;;19.45;45.81;102134.91;4176041;28;20087;-45
2021/12/16 11:36:57;;;;;;;3.60;1.95;;;;;;;19.44;45.42;102125.75;4176964;28;20048;-47
2021/12/16 11:39:01;;;;;;;5.65;1.70;;;;;;;19.44;45.43;102117.41;4180119;28;20049;-48
2021/12/16 11:41:16;;;;;;;3.72;2.25;;;;;;;19.41;45.76;102115.13;4169604;28;20553;-46
2021/12/16 11:43:17;;;;;;;6.50;1.77;;;;;;;19.41;45.73;102105.94;4165247;28;20045;-47
2021/12/16 11:45:40;;;;;;;4.35;1.48;;;;;;;19.38;45.59;102106.44;4170696;28;20106;-49
2021/12/16 11:47:55;;;;;;;5.32;1.92;;;;;;;19.39;45.84;102097.03;4165857;28;20092;-48
2021/12/16 11:50:02;;;;;;;3.08;1.70;;;;;;;19.41;45.84;102094.84;4175075;28;20094;-48
2021/12/16 11:52:14;;;;;;;4.07;1.90;;;;;;;19.42;45.46;102093.75;4171097;28;20041;-47
2021/12/16 11:54:32;;;;;;;6.00;1.75;;;;;;;19.37;45.84;102079.75;4178634;28;20480;-46
2021/12/16 11:56:42;;;;;;;3.67;1.67;;;;;;;19.42;45.45;102088.19;4181574;28;20041;-46
2021/12/16 11:58:47;;;;;;;3.10;1.77;;;;;;;19.40;45.90;102087.63;4181253;28;20098;-48